createdAt,value
2022-08-19T00:00:30.984Z,99.99
2022-08-19T00:01:31.008Z,99.99
2022-08-19T00:02:30.967Z,99.99
2022-08-19T00:03:30.968Z,99.99
2022-08-19T00:04:30.961Z,99.99
2022-08-19T00:05:30.971Z,99.99
2022-08-19T00:06:30.910Z,99.99
2022-08-19T00:07:30.929Z,99.99
2022-08-19T00:08:30.922Z,99.99
2022-08-19T00:09:30.908Z,99.99
2022-08-19T00:10:30.863Z,99.99
2022-08-19T00:11:30.853Z,99.99
2022-08-19T00:12:30.872Z,99.99
2022-08-19T00:13:30.833Z,99.99
2022-08-19T00:14:30.829Z,99.99
2022-08-19T00:15:30.813Z,99.99
2022-08-19T00:16:30.795Z,99.99
2022-08-19T00:17:30.821Z,99.99
2022-08-19T00:18:30.782Z,99.99
2022-08-19T00:19:30.818Z,99.99
2022-08-19T00:20:30.771Z,99.99
2022-08-19T00:21:30.744Z,99.99
2022-08-19T00:22:30.756Z,99.99
2022-08-19T00:23:30.730Z,99.99
2022-08-19T00:24:30.706Z,99.99
2022-08-19T00:25:30.921Z,99.99
2022-08-19T00:26:30.688Z,99.99
2022-08-19T00:27:30.762Z,99.85
2022-08-19T00:28:30.661Z,99.95
2022-08-19T00:29:30.666Z,99.95
2022-08-19T00:30:30.651Z,99.95
2022-08-19T00:31:30.641Z,99.99
2022-08-19T00:32:30.615Z,99.95
2022-08-19T00:33:30.655Z,99.95
2022-08-19T00:34:30.601Z,99.99
2022-08-19T00:35:30.587Z,99.99
2022-08-19T00:36:30.584Z,99.99
2022-08-19T00:37:30.584Z,99.95
2022-08-19T00:38:36.765Z,99.95
2022-08-19T00:39:31.602Z,99.99
2022-08-19T00:40:30.534Z,99.99
2022-08-19T00:41:30.562Z,99.99
2022-08-19T00:42:30.511Z,99.85
2022-08-19T00:43:30.493Z,99.99
2022-08-19T00:44:30.484Z,99.99
2022-08-19T00:45:30.468Z,99.99
2022-08-19T00:46:30.503Z,99.99
2022-08-19T00:47:30.473Z,99.99
2022-08-19T00:48:30.457Z,99.45
2022-08-19T00:49:30.429Z,99.65
2022-08-19T00:50:30.414Z,99.99
2022-08-19T00:51:30.474Z,99.51
2022-08-19T00:52:30.397Z,99.20
2022-08-19T00:53:30.385Z,99.20
2022-08-19T00:54:31.282Z,99.10
2022-08-19T00:55:30.352Z,99.20
2022-08-19T00:56:30.378Z,99.20
2022-08-19T00:57:30.363Z,99.20
2022-08-19T00:58:30.432Z,99.10
2022-08-19T00:59:56.312Z,99.10
2022-08-19T01:00:31.295Z,99.20
2022-08-19T01:01:30.352Z,98.80
2022-08-19T01:02:30.319Z,99.10
2022-08-19T01:03:56.765Z,99.10
2022-08-19T01:04:31.251Z,98.70
2022-08-19T01:05:30.281Z,98.70
2022-08-19T01:06:30.228Z,99.10
2022-08-19T01:07:37.845Z,99.20
2022-08-19T01:08:31.226Z,99.10
2022-08-19T01:09:30.211Z,98.70
2022-08-19T01:10:34.750Z,98.90
2022-08-19T01:11:31.200Z,99.10
2022-08-19T01:12:30.161Z,99.10
2022-08-19T01:13:30.191Z,98.70
2022-08-19T01:14:31.145Z,98.80
2022-08-19T01:15:30.165Z,98.70
2022-08-19T01:16:30.146Z,98.80
2022-08-19T01:17:30.150Z,99.00
2022-08-19T01:18:30.092Z,99.10
2022-08-19T01:19:30.088Z,99.30
2022-08-19T01:20:30.081Z,99.10
2022-08-19T01:21:30.108Z,99.40
2022-08-19T01:22:33.515Z,99.10
2022-08-19T01:23:30.107Z,99.40
2022-08-19T01:24:30.028Z,99.10
2022-08-19T01:25:30.027Z,99.10
2022-08-19T01:26:31.303Z,98.70
2022-08-19T01:27:35.260Z,99.10
2022-08-19T01:28:39.051Z,99.10
2022-08-19T01:29:30.982Z,98.60
2022-08-19T01:30:29.962Z,98.70
2022-08-19T01:31:29.955Z,98.70
2022-08-19T01:32:33.374Z,98.60
2022-08-19T01:33:29.923Z,98.60
2022-08-19T01:34:29.952Z,99.00
2022-08-19T01:35:29.912Z,98.90
2022-08-19T01:36:29.913Z,99.10
2022-08-19T01:37:29.917Z,99.20
2022-08-19T01:38:29.901Z,98.90
2022-08-19T01:39:30.023Z,98.80
2022-08-19T01:40:29.843Z,98.74
2022-08-19T01:41:29.842Z,98.60
2022-08-19T01:42:30.618Z,98.70
2022-08-19T01:43:29.825Z,98.70
2022-08-19T01:44:29.819Z,98.80
2022-08-19T01:45:29.827Z,98.70
2022-08-19T01:46:29.780Z,99.10
2022-08-19T01:47:29.776Z,98.60
2022-08-19T01:48:29.755Z,99.00
2022-08-19T01:49:29.791Z,98.74
2022-08-19T01:50:29.732Z,99.00
2022-08-19T01:51:29.722Z,99.20
2022-08-19T01:52:30.708Z,98.94
2022-08-19T01:53:33.597Z,98.74
2022-08-19T01:54:29.695Z,99.10
2022-08-19T01:55:29.696Z,99.15
2022-08-19T01:56:29.662Z,98.70
2022-08-19T01:57:29.651Z,98.70
2022-08-19T01:58:29.649Z,98.94
2022-08-19T01:59:29.662Z,99.05
2022-08-19T02:00:29.629Z,98.94
2022-08-19T02:01:31.394Z,98.90
2022-08-19T02:02:29.600Z,98.74
2022-08-19T02:03:29.622Z,99.20
2022-08-19T02:04:29.586Z,98.74
2022-08-19T02:05:29.600Z,98.90
2022-08-19T02:06:29.562Z,98.80
2022-08-19T02:07:29.543Z,98.90
2022-08-19T02:08:29.526Z,98.90
2022-08-19T02:09:29.558Z,98.60
2022-08-19T02:10:29.504Z,98.70
2022-08-19T02:11:29.511Z,98.70
2022-08-19T02:12:29.479Z,98.80
2022-08-19T02:13:29.467Z,98.60
2022-08-19T02:14:29.481Z,99.00
2022-08-19T02:15:29.477Z,98.39
2022-08-19T02:16:29.450Z,98.39
2022-08-19T02:17:29.435Z,98.19
2022-08-19T02:18:29.459Z,97.99
2022-08-19T02:19:29.428Z,98.70
2022-08-19T02:20:29.392Z,99.20
2022-08-19T02:21:29.381Z,98.60
2022-08-19T02:22:29.402Z,98.80
2022-08-19T02:23:29.377Z,98.90
2022-08-19T02:24:29.344Z,98.80
2022-08-19T02:25:29.330Z,98.70
2022-08-19T02:26:29.331Z,98.80
2022-08-19T02:27:29.346Z,98.70
2022-08-19T02:28:29.328Z,98.60
2022-08-19T02:29:29.285Z,98.90
2022-08-19T02:30:29.275Z,98.19
2022-08-19T02:31:29.271Z,98.15
2022-08-19T02:32:29.286Z,99.30
2022-08-19T02:33:29.283Z,98.95
2022-08-19T02:34:29.271Z,98.19
2022-08-19T02:35:29.216Z,98.30
2022-08-19T02:36:29.206Z,98.80
2022-08-19T02:37:29.199Z,99.00
2022-08-19T02:38:29.219Z,99.00
2022-08-19T02:39:29.217Z,99.40
2022-08-19T02:40:29.167Z,98.90
2022-08-19T02:41:29.152Z,99.00
2022-08-19T02:42:29.138Z,98.90
2022-08-19T02:43:29.168Z,98.90
2022-08-19T02:44:31.848Z,98.80
2022-08-19T02:45:29.116Z,98.70
2022-08-19T02:46:29.094Z,99.10
2022-08-19T02:47:29.085Z,99.20
2022-08-19T02:48:29.072Z,99.20
2022-08-19T02:49:29.072Z,99.51
2022-08-19T02:50:29.222Z,99.20
2022-08-19T02:51:29.034Z,99.20
2022-08-19T02:52:29.024Z,99.99
2022-08-19T02:53:29.017Z,99.20
2022-08-19T02:54:29.025Z,99.99
2022-08-19T02:55:29.001Z,99.71
2022-08-19T02:56:29.031Z,99.71
2022-08-19T02:57:29.008Z,99.60
2022-08-19T02:58:28.956Z,99.71
2022-08-19T02:59:28.942Z,99.51
2022-08-19T03:00:28.940Z,99.10
2022-08-19T03:01:29.001Z,99.10
2022-08-19T03:02:28.940Z,99.10
2022-08-19T03:03:28.900Z,99.30
2022-08-19T03:04:28.917Z,99.51
2022-08-19T03:05:46.979Z,99.51
2022-08-19T03:06:29.886Z,99.99
2022-08-19T03:07:28.884Z,99.51
2022-08-19T03:08:28.842Z,99.99
2022-08-19T03:09:28.875Z,99.40
2022-08-19T03:10:28.820Z,99.10
2022-08-19T03:11:28.824Z,99.51
2022-08-19T03:12:28.839Z,99.30
2022-08-19T03:13:28.920Z,99.20
2022-08-19T03:14:28.832Z,99.10
2022-08-19T03:15:28.761Z,99.30
2022-08-19T03:16:28.758Z,99.20
2022-08-19T03:17:28.738Z,99.20
2022-08-19T03:18:28.745Z,99.26
2022-08-19T03:19:28.760Z,99.10
2022-08-19T03:20:28.706Z,99.00
2022-08-19T03:21:28.692Z,99.20
2022-08-19T03:22:28.709Z,99.46
2022-08-19T03:23:28.680Z,99.30
2022-08-19T03:24:28.709Z,99.20
2022-08-19T03:25:28.647Z,99.40
2022-08-19T03:26:28.642Z,99.30
2022-08-19T03:27:34.202Z,99.20
2022-08-19T03:28:29.648Z,99.30
2022-08-19T03:29:30.705Z,99.40
2022-08-19T03:30:28.646Z,99.20
2022-08-19T03:31:43.806Z,99.20
2022-08-19T03:32:32.162Z,99.51
2022-08-19T03:33:28.795Z,99.60
2022-08-19T03:34:28.600Z,99.40
2022-08-19T03:35:28.570Z,99.30
2022-08-19T03:36:29.651Z,99.51
2022-08-19T03:37:28.510Z,99.71
2022-08-19T03:38:28.562Z,99.90
2022-08-19T03:39:28.517Z,99.40
2022-08-19T03:40:28.493Z,99.80
2022-08-19T03:41:43.250Z,99.99
2022-08-19T03:42:38.717Z,99.25
2022-08-19T03:43:29.481Z,99.20
2022-08-19T03:44:28.479Z,99.20
2022-08-19T03:45:28.425Z,99.20
2022-08-19T03:46:28.455Z,99.20
2022-08-19T03:47:28.398Z,99.71
2022-08-19T03:48:28.386Z,99.35
2022-08-19T03:49:29.093Z,99.10
2022-08-19T03:50:28.383Z,99.51
2022-08-19T03:51:30.995Z,99.00
2022-08-19T03:52:28.392Z,98.80
2022-08-19T03:53:28.329Z,99.10
2022-08-19T03:54:28.321Z,99.30
2022-08-19T03:55:28.315Z,99.20
2022-08-19T03:56:28.302Z,99.30
2022-08-19T03:57:31.808Z,99.10
2022-08-19T03:58:28.308Z,99.20
2022-08-19T03:59:28.312Z,99.25
2022-08-19T04:00:28.249Z,99.10
2022-08-19T04:01:35.530Z,99.20
2022-08-19T04:02:29.245Z,99.10
2022-08-19T04:03:28.233Z,99.51
2022-08-19T04:04:29.202Z,99.40
2022-08-19T04:05:28.253Z,99.60
2022-08-19T04:06:28.185Z,99.99
2022-08-19T04:07:28.184Z,99.60
2022-08-19T04:08:28.175Z,99.40
2022-08-19T04:09:28.146Z,99.51
2022-08-19T04:10:28.137Z,99.71
2022-08-19T04:11:43.951Z,99.30
2022-08-19T04:12:29.140Z,99.15
2022-08-19T04:13:28.126Z,99.80
2022-08-19T04:14:28.120Z,99.99
2022-08-19T04:15:28.078Z,99.71
2022-08-19T04:16:31.627Z,99.99
2022-08-19T04:17:29.095Z,99.71
2022-08-19T04:18:28.066Z,99.80
2022-08-19T04:19:28.065Z,99.51
2022-08-19T04:20:28.055Z,99.71
2022-08-19T04:21:28.011Z,99.20
2022-08-19T04:22:28.000Z,99.40
2022-08-19T04:23:28.034Z,99.30
2022-08-19T04:24:27.990Z,99.99
2022-08-19T04:25:27.999Z,99.20
2022-08-19T04:26:27.994Z,99.20
2022-08-19T04:27:27.942Z,99.60
2022-08-19T04:28:27.990Z,99.99
2022-08-19T04:29:27.957Z,99.71
2022-08-19T04:30:27.921Z,99.99
2022-08-19T04:31:27.956Z,99.99
2022-08-19T04:32:28.029Z,99.80
2022-08-19T04:33:28.503Z,99.40
2022-08-19T04:34:27.884Z,99.71
2022-08-19T04:35:27.856Z,99.99
2022-08-19T04:36:27.858Z,99.60
2022-08-19T04:37:29.562Z,99.99
2022-08-19T04:38:28.854Z,99.51
2022-08-19T04:39:27.810Z,99.40
2022-08-19T04:40:27.809Z,99.20
2022-08-19T04:41:27.791Z,99.10
2022-08-19T04:42:30.708Z,99.20
2022-08-19T04:43:27.764Z,99.20
2022-08-19T04:44:27.751Z,98.80
2022-08-19T04:45:27.784Z,99.10
2022-08-19T04:46:40.653Z,99.10
2022-08-19T04:47:48.038Z,99.20
2022-08-19T04:48:28.706Z,99.40
2022-08-19T04:49:27.699Z,98.90
2022-08-19T04:50:27.774Z,99.10
2022-08-19T04:51:27.717Z,98.90
2022-08-19T04:52:27.677Z,99.00
2022-08-19T04:53:27.670Z,98.90
2022-08-19T04:54:37.645Z,99.15
2022-08-19T04:55:28.664Z,98.90
2022-08-19T04:56:27.622Z,99.10
2022-08-19T04:57:27.624Z,98.70
2022-08-19T04:58:35.632Z,98.80
2022-08-19T04:59:27.594Z,98.95
2022-08-19T05:00:27.616Z,98.95
2022-08-19T05:01:27.619Z,98.85
2022-08-19T05:02:27.593Z,98.85
2022-08-19T05:03:30.478Z,98.75
2022-08-19T05:04:27.554Z,98.85
2022-08-19T05:05:27.511Z,98.65
2022-08-19T05:06:27.504Z,98.85
2022-08-19T05:07:27.504Z,98.95
2022-08-19T05:08:30.978Z,99.05
2022-08-19T05:09:27.522Z,99.10
2022-08-19T05:10:27.488Z,99.05
2022-08-19T05:11:27.444Z,98.85
2022-08-19T05:12:29.119Z,98.95
2022-08-19T05:13:27.421Z,98.75
2022-08-19T05:14:27.411Z,98.75
2022-08-19T05:15:27.430Z,98.85
2022-08-19T05:16:27.408Z,98.85
2022-08-19T05:17:28.997Z,98.75
2022-08-19T05:18:27.363Z,98.55
2022-08-19T05:19:27.363Z,98.25
2022-08-19T05:20:27.389Z,98.15
2022-08-19T05:21:27.354Z,99.35
2022-08-19T05:22:27.317Z,98.25
2022-08-19T05:23:27.313Z,98.45
2022-08-19T05:24:27.298Z,98.25
2022-08-19T05:25:27.311Z,98.55
2022-08-19T05:26:27.305Z,98.25
2022-08-19T05:27:27.307Z,99.15
2022-08-19T05:28:27.420Z,99.05
2022-08-19T05:29:27.261Z,98.95
2022-08-19T05:30:46.115Z,98.65
2022-08-19T05:31:28.250Z,98.55
2022-08-19T05:32:27.226Z,98.85
2022-08-19T05:33:27.244Z,98.95
2022-08-19T05:34:27.182Z,98.85
2022-08-19T05:35:27.173Z,98.95
2022-08-19T05:36:27.202Z,99.05
2022-08-19T05:37:27.168Z,98.90
2022-08-19T05:38:27.177Z,98.55
2022-08-19T05:39:27.177Z,98.85
2022-08-19T05:40:27.174Z,99.15
2022-08-19T05:41:27.108Z,99.05
2022-08-19T05:42:27.100Z,99.05
2022-08-19T05:43:27.108Z,98.95
2022-08-19T05:44:27.095Z,98.95
2022-08-19T05:45:27.114Z,98.85
2022-08-19T05:46:27.762Z,98.25
2022-08-19T05:47:27.045Z,98.15
2022-08-19T05:48:27.050Z,98.25
2022-08-19T05:49:27.041Z,98.45
2022-08-19T05:50:26.999Z,98.25
2022-08-19T05:51:29.110Z,98.15
2022-08-19T05:52:26.984Z,98.25
2022-08-19T05:53:27.018Z,98.25
2022-08-19T05:54:26.983Z,98.15
2022-08-19T05:55:26.983Z,98.05
2022-08-19T05:56:27.047Z,98.15
2022-08-19T05:57:26.925Z,98.35
2022-08-19T05:58:26.926Z,98.65
2022-08-19T05:59:26.903Z,98.40
2022-08-19T06:00:26.906Z,97.80
2022-08-19T06:01:26.876Z,97.75
2022-08-19T06:02:26.988Z,97.95
2022-08-19T06:03:26.855Z,98.45
2022-08-19T06:04:26.872Z,98.15
2022-08-19T06:05:26.844Z,98.45
2022-08-19T06:06:26.856Z,98.25
2022-08-19T06:07:26.918Z,98.45
2022-08-19T06:08:34.411Z,98.05
2022-08-19T06:09:27.803Z,98.05
2022-08-19T06:10:26.886Z,98.05
2022-08-19T06:11:26.804Z,98.05
2022-08-19T06:12:26.795Z,98.25
2022-08-19T06:13:26.740Z,97.75
2022-08-19T06:14:28.240Z,98.45
2022-08-19T06:15:26.768Z,98.65
2022-08-19T06:16:26.726Z,97.95
2022-08-19T06:17:26.729Z,98.65
2022-08-19T06:18:26.682Z,98.35
2022-08-19T06:19:26.674Z,98.15
2022-08-19T06:20:54.064Z,98.65
2022-08-19T06:21:27.677Z,98.35
2022-08-19T06:22:26.656Z,98.30
2022-08-19T06:23:26.667Z,98.65
2022-08-19T06:24:26.615Z,98.00
2022-08-19T06:25:30.382Z,98.65
2022-08-19T06:26:26.628Z,98.25
2022-08-19T06:27:26.596Z,98.60
2022-08-19T06:28:26.608Z,98.45
2022-08-19T06:29:26.649Z,98.15
2022-08-19T06:30:26.554Z,97.80
2022-08-19T06:31:26.581Z,98.35
2022-08-19T06:32:26.536Z,98.25
2022-08-19T06:33:26.533Z,98.35
2022-08-19T06:34:26.541Z,98.15
2022-08-19T06:35:26.547Z,98.15
2022-08-19T06:36:26.476Z,97.85
2022-08-19T06:37:26.471Z,99.05
2022-08-19T06:38:26.463Z,98.95
2022-08-19T06:39:26.470Z,99.15
2022-08-19T06:40:26.433Z,98.25
2022-08-19T06:41:26.480Z,98.05
2022-08-19T06:42:26.433Z,98.45
2022-08-19T06:43:28.176Z,97.95
2022-08-19T06:44:26.402Z,99.05
2022-08-19T06:45:35.543Z,98.55
2022-08-19T06:46:27.379Z,98.55
2022-08-19T06:47:28.820Z,97.85
2022-08-19T06:48:26.343Z,98.15
2022-08-19T06:49:26.339Z,98.05
2022-08-19T06:50:26.428Z,98.45
2022-08-19T06:51:26.388Z,98.35
2022-08-19T06:52:27.316Z,98.35
2022-08-19T06:53:26.316Z,98.45
2022-08-19T06:54:30.774Z,98.25
2022-08-19T06:55:26.282Z,98.35
2022-08-19T06:56:26.271Z,98.25
2022-08-19T06:57:26.241Z,98.45
2022-08-19T06:58:26.228Z,98.45
2022-08-19T06:59:26.259Z,98.55
2022-08-19T07:00:26.474Z,98.45
2022-08-19T07:01:26.230Z,98.15
2022-08-19T07:02:26.212Z,98.45
2022-08-19T07:03:26.221Z,98.65
2022-08-19T07:04:26.159Z,98.05
2022-08-19T07:05:26.159Z,98.55
2022-08-19T07:06:43.273Z,98.45
2022-08-19T07:07:27.131Z,98.35
2022-08-19T07:08:26.174Z,98.25
2022-08-19T07:09:26.159Z,98.25
2022-08-19T07:10:26.117Z,98.55
2022-08-19T07:11:26.113Z,99.05
2022-08-19T07:12:26.611Z,98.95
2022-08-19T07:13:26.084Z,98.15
2022-08-19T07:14:26.051Z,98.45
2022-08-19T07:15:26.036Z,98.25
2022-08-19T07:16:29.461Z,99.11
2022-08-19T07:17:26.033Z,98.35
2022-08-19T07:18:26.026Z,98.25
2022-08-19T07:19:26.016Z,99.05
2022-08-19T07:20:28.766Z,99.01
2022-08-19T07:21:25.969Z,98.45
2022-08-19T07:22:25.965Z,99.01
2022-08-19T07:23:26.058Z,98.40
2022-08-19T07:24:25.957Z,99.15
2022-08-19T07:25:32.114Z,99.99
2022-08-19T07:26:27.855Z,99.66
2022-08-19T07:27:25.905Z,99.81
2022-08-19T07:28:25.926Z,99.99
2022-08-19T07:29:28.540Z,99.66
2022-08-19T07:30:26.304Z,99.55
2022-08-19T07:31:25.903Z,99.96
2022-08-19T07:32:25.843Z,99.35
2022-08-19T07:33:27.937Z,99.99
2022-08-19T07:34:25.834Z,99.96
2022-08-19T07:35:25.865Z,99.99
2022-08-19T07:36:26.199Z,99.76
2022-08-19T07:37:29.433Z,99.99
2022-08-19T07:38:26.779Z,99.86
2022-08-19T07:39:25.778Z,99.99
2022-08-19T07:40:25.792Z,99.99
2022-08-19T07:41:25.773Z,99.99
2022-08-19T07:42:25.728Z,99.99
2022-08-19T07:43:25.787Z,99.99
2022-08-19T07:44:26.755Z,99.99
2022-08-19T07:45:25.719Z,99.99
2022-08-19T07:46:25.714Z,99.99
2022-08-19T07:47:49.559Z,99.99
2022-08-19T07:48:26.665Z,99.99
2022-08-19T07:49:25.680Z,99.99
2022-08-19T07:50:25.653Z,99.99
2022-08-19T07:51:36.704Z,99.99
2022-08-19T07:52:26.613Z,99.99
2022-08-19T07:53:25.604Z,99.99
2022-08-19T07:54:25.592Z,99.99
2022-08-19T07:55:41.496Z,99.99
2022-08-19T07:56:26.594Z,99.99
2022-08-19T07:57:25.583Z,99.99
2022-08-19T07:58:25.546Z,99.76
2022-08-19T07:59:25.538Z,99.76
2022-08-19T08:00:25.716Z,99.99
2022-08-19T08:01:25.651Z,99.99
2022-08-19T08:02:25.517Z,99.99
2022-08-19T08:03:25.519Z,99.99
2022-08-19T08:04:25.499Z,99.99
2022-08-19T08:05:25.483Z,99.99
2022-08-19T08:06:25.504Z,99.99
2022-08-19T08:07:31.602Z,99.99
2022-08-19T08:08:27.506Z,99.99
2022-08-19T08:09:25.462Z,99.99
2022-08-19T08:10:25.478Z,99.99
2022-08-19T08:11:25.400Z,99.99
2022-08-19T08:12:34.292Z,99.99
2022-08-19T08:13:26.571Z,99.99
2022-08-19T08:14:29.456Z,99.99
2022-08-19T08:15:26.378Z,99.99
2022-08-19T08:16:25.342Z,99.99
2022-08-19T08:17:31.159Z,99.99
2022-08-19T08:18:28.136Z,99.99
2022-08-19T08:19:25.964Z,99.99
2022-08-19T08:20:25.325Z,99.99
2022-08-19T08:21:25.290Z,99.99
2022-08-19T08:22:25.275Z,99.99
2022-08-19T08:23:25.300Z,99.99
2022-08-19T08:24:28.496Z,99.99
2022-08-19T08:25:25.265Z,99.99
2022-08-19T08:26:25.229Z,99.99
2022-08-19T08:27:26.448Z,99.99
2022-08-19T08:28:25.238Z,99.99
2022-08-19T08:29:26.029Z,99.99
2022-08-19T08:30:25.197Z,99.99
2022-08-19T08:31:25.185Z,99.99
2022-08-19T08:32:25.196Z,99.99
2022-08-19T08:33:33.293Z,99.99
2022-08-19T08:34:26.182Z,99.99
2022-08-19T08:35:25.129Z,99.99
2022-08-19T08:36:25.139Z,99.99
2022-08-19T08:37:25.131Z,99.99
2022-08-19T08:38:25.134Z,99.99
2022-08-19T08:39:25.082Z,99.99
2022-08-19T08:40:25.141Z,99.99
2022-08-19T08:41:25.129Z,99.99
2022-08-19T08:42:25.069Z,99.99
2022-08-19T08:43:25.037Z,99.99
2022-08-19T08:44:25.052Z,99.99
2022-08-19T08:45:25.015Z,99.99
2022-08-19T08:46:32.018Z,99.99
2022-08-19T08:47:26.037Z,99.99
2022-08-19T08:48:25.005Z,99.99
2022-08-19T08:49:25.015Z,99.99
2022-08-19T08:50:26.430Z,99.99
2022-08-19T08:51:24.971Z,99.99
2022-08-19T08:52:25.944Z,99.99
2022-08-19T08:53:29.845Z,99.99
2022-08-19T08:54:25.913Z,99.99
2022-08-19T08:55:24.903Z,99.99
2022-08-19T08:56:24.941Z,99.99
2022-08-19T08:57:24.900Z,99.99
2022-08-19T08:58:24.887Z,99.99
2022-08-19T08:59:24.891Z,99.99
2022-08-19T09:00:24.847Z,99.99
2022-08-19T09:01:24.895Z,99.99
2022-08-19T09:02:26.751Z,99.99
2022-08-19T09:03:24.843Z,99.99
2022-08-19T09:04:24.814Z,99.99
2022-08-19T09:05:26.118Z,99.99
2022-08-19T09:06:25.968Z,99.99
2022-08-19T09:07:35.490Z,99.99
2022-08-19T09:08:25.793Z,99.99
2022-08-19T09:09:24.786Z,99.99
2022-08-19T09:10:26.009Z,99.99
2022-08-19T09:11:42.090Z,99.99
2022-08-19T09:12:26.789Z,99.99
2022-08-19T09:13:24.704Z,99.99
2022-08-19T09:14:49.279Z,99.99
2022-08-19T09:15:33.396Z,99.99
2022-08-19T09:16:27.708Z,99.99
2022-08-19T09:17:24.697Z,99.99
2022-08-19T09:18:24.643Z,99.99
2022-08-19T09:19:24.634Z,99.99
2022-08-19T09:20:24.652Z,99.99
2022-08-19T09:21:30.443Z,99.99
2022-08-19T09:22:27.368Z,99.99
2022-08-19T09:23:26.956Z,99.99
2022-08-19T09:24:24.574Z,99.99
2022-08-19T09:25:26.983Z,99.99
2022-08-19T09:26:24.579Z,99.99
2022-08-19T09:27:41.755Z,99.99
2022-08-19T09:28:27.278Z,99.99
2022-08-19T09:29:24.517Z,99.99
2022-08-19T09:30:24.513Z,99.99
2022-08-19T09:31:24.538Z,99.99
2022-08-19T09:32:26.055Z,99.99
2022-08-19T09:33:24.472Z,99.99
2022-08-19T09:34:24.464Z,99.99
2022-08-19T09:35:24.487Z,99.99
2022-08-19T09:36:33.672Z,99.99
2022-08-19T09:37:25.449Z,99.99
2022-08-19T09:38:24.449Z,99.99
2022-08-19T09:39:24.405Z,99.99
2022-08-19T09:40:24.876Z,99.99
2022-08-19T09:41:24.419Z,99.99
2022-08-19T09:42:30.533Z,99.99
2022-08-19T09:43:33.451Z,99.99
2022-08-19T09:44:25.353Z,99.99
2022-08-19T09:45:24.340Z,99.99
2022-08-19T09:46:24.391Z,99.99
2022-08-19T09:47:24.354Z,99.99
2022-08-19T09:48:24.308Z,99.99
2022-08-19T09:49:24.529Z,99.99
2022-08-19T09:50:24.302Z,99.99
2022-08-19T09:51:24.271Z,99.99
2022-08-19T09:52:24.260Z,99.99
2022-08-19T09:53:25.531Z,99.99
2022-08-19T09:54:24.277Z,99.99
2022-08-19T09:55:24.243Z,99.99
2022-08-19T09:56:24.505Z,99.99
2022-08-19T09:57:24.206Z,99.99
2022-08-19T09:58:26.793Z,99.99
2022-08-19T09:59:24.219Z,99.99
2022-08-19T10:00:24.184Z,99.99
2022-08-19T10:01:24.269Z,99.99
2022-08-19T10:02:24.148Z,99.99
2022-08-19T10:03:25.530Z,99.99
2022-08-19T10:04:25.404Z,99.99
2022-08-19T10:05:26.822Z,99.99
2022-08-19T10:06:43.265Z,99.99
2022-08-19T10:07:28.936Z,99.99
2022-08-19T10:08:26.392Z,99.99
2022-08-19T10:09:33.579Z,99.99
2022-08-19T10:10:25.085Z,99.99
2022-08-19T10:11:27.895Z,99.99
2022-08-19T10:12:25.033Z,99.99
2022-08-19T10:13:24.067Z,99.99
2022-08-19T10:14:24.012Z,99.99
2022-08-19T10:15:29.266Z,99.99
2022-08-19T10:16:26.217Z,99.99
2022-08-19T10:17:27.419Z,99.99
2022-08-19T10:18:24.995Z,99.99
2022-08-19T10:19:25.479Z,99.99
2022-08-19T10:20:23.971Z,99.99
2022-08-19T10:21:23.946Z,99.99
2022-08-19T10:22:23.932Z,99.99
2022-08-19T10:23:23.934Z,99.99
2022-08-19T10:24:23.897Z,99.99
2022-08-19T10:25:23.886Z,99.99
2022-08-19T10:26:23.910Z,99.99
2022-08-19T10:27:23.895Z,99.99
2022-08-19T10:28:23.875Z,99.99
2022-08-19T10:29:32.832Z,99.99
2022-08-19T10:30:24.834Z,99.99
2022-08-19T10:32:01.447Z,99.99
2022-08-19T10:32:34.275Z,99.99
2022-08-19T10:33:38.605Z,99.99
2022-08-19T10:34:27.845Z,99.99
2022-08-19T10:35:23.769Z,99.99
2022-08-19T10:36:23.795Z,99.99
2022-08-19T10:37:28.995Z,99.99
2022-08-19T10:38:31.354Z,99.99
2022-08-19T10:39:24.725Z,99.99
2022-08-19T10:40:24.814Z,99.99
2022-08-19T10:41:23.702Z,99.99
2022-08-19T10:42:23.697Z,99.99
2022-08-19T10:43:23.693Z,99.99
2022-08-19T10:44:23.728Z,99.99
2022-08-19T10:45:23.666Z,99.99
2022-08-19T10:46:23.711Z,99.99
2022-08-19T10:47:25.613Z,99.99
2022-08-19T10:48:23.626Z,99.99
2022-08-19T10:49:23.641Z,99.99
2022-08-19T10:50:28.683Z,99.99
2022-08-19T10:51:24.610Z,99.99
2022-08-19T10:52:27.255Z,99.99
2022-08-19T10:53:24.588Z,99.99
2022-08-19T10:54:31.410Z,99.99
2022-08-19T10:55:24.560Z,99.99
2022-08-19T10:56:23.567Z,99.99
2022-08-19T10:57:23.554Z,99.99
2022-08-19T10:58:23.513Z,99.99
2022-08-19T10:59:26.761Z,99.22
2022-08-19T11:00:23.506Z,99.72
2022-08-19T11:01:23.528Z,99.12
2022-08-19T11:02:23.498Z,99.68
2022-08-19T11:03:23.455Z,99.87
2022-08-19T11:04:23.446Z,99.48
2022-08-19T11:05:24.612Z,99.99
2022-08-19T11:06:23.456Z,99.99
2022-08-19T11:07:23.423Z,99.33
2022-08-19T11:08:24.171Z,99.93
2022-08-19T11:09:23.388Z,99.38
2022-08-19T11:10:23.447Z,99.99
2022-08-19T11:11:23.412Z,98.43
2022-08-19T11:12:23.357Z,97.97
2022-08-19T11:13:23.370Z,97.38
2022-08-19T11:14:23.336Z,98.03
2022-08-19T11:15:23.322Z,98.23
2022-08-19T11:16:23.324Z,97.97
2022-08-19T11:17:23.341Z,97.08
2022-08-19T11:18:23.299Z,97.97
2022-08-19T11:19:23.306Z,96.67
2022-08-19T11:20:23.313Z,96.97
2022-08-19T11:21:23.254Z,97.38
2022-08-19T11:22:23.256Z,97.78
2022-08-19T11:23:23.237Z,97.88
2022-08-19T11:24:23.239Z,98.98
2022-08-19T11:25:23.211Z,98.58
2022-08-19T11:26:23.222Z,97.97
2022-08-19T11:27:23.187Z,96.97
2022-08-19T11:28:23.200Z,95.42
2022-08-19T11:29:23.176Z,96.72
2022-08-19T11:30:23.178Z,96.97
2022-08-19T11:31:23.148Z,97.88
2022-08-19T11:32:23.132Z,96.97
2022-08-19T11:33:23.124Z,95.87
2022-08-19T11:34:23.113Z,96.17
2022-08-19T11:35:23.115Z,96.47
2022-08-19T11:36:23.117Z,97.08
2022-08-19T11:37:23.116Z,97.83
2022-08-19T11:38:23.064Z,96.33
2022-08-19T11:39:23.343Z,95.83
2022-08-19T11:40:23.131Z,94.87
2022-08-19T11:41:23.049Z,94.37
2022-08-19T11:42:23.022Z,95.47
2022-08-19T11:43:23.066Z,96.37
2022-08-19T11:44:23.028Z,96.88
2022-08-19T11:45:23.001Z,96.82
2022-08-19T11:46:22.998Z,97.02
2022-08-19T11:47:22.989Z,96.32
2022-08-19T11:48:23.002Z,96.32
2022-08-19T11:49:22.977Z,97.12
2022-08-19T11:50:23.054Z,98.52
2022-08-19T11:51:22.969Z,97.97
2022-08-19T11:52:22.925Z,97.87
2022-08-19T11:53:22.916Z,96.91
2022-08-19T11:54:22.887Z,98.07
2022-08-19T11:55:22.894Z,98.57
2022-08-19T11:56:22.901Z,98.57
2022-08-19T11:57:22.863Z,98.77
2022-08-19T11:58:22.860Z,98.77
2022-08-19T11:59:22.829Z,98.92
2022-08-19T12:00:22.822Z,98.87
2022-08-19T12:01:22.833Z,99.82
2022-08-19T12:02:22.839Z,99.37
2022-08-19T12:03:22.793Z,99.98
2022-08-19T12:04:22.843Z,98.57
2022-08-19T12:05:22.761Z,97.77
2022-08-19T12:06:22.773Z,98.87
2022-08-19T12:07:22.741Z,99.17
2022-08-19T12:08:22.760Z,98.72
2022-08-19T12:09:22.736Z,98.63
2022-08-19T12:10:26.270Z,98.93
2022-08-19T12:11:22.696Z,98.28
2022-08-19T12:12:22.685Z,99.38
2022-08-19T12:13:23.319Z,97.78
2022-08-19T12:14:22.700Z,94.87
2022-08-19T12:15:22.663Z,95.77
2022-08-19T12:16:22.640Z,96.58
2022-08-19T12:17:22.627Z,96.37
2022-08-19T12:18:22.619Z,96.17
2022-08-19T12:19:22.871Z,96.53
2022-08-19T12:20:22.644Z,95.93
2022-08-19T12:21:22.639Z,96.08
2022-08-19T12:22:22.572Z,96.38
2022-08-19T12:23:22.586Z,96.78
2022-08-19T12:24:22.654Z,95.83
2022-08-19T12:25:22.542Z,95.08
2022-08-19T12:26:22.550Z,94.08
2022-08-19T12:27:31.997Z,94.18
2022-08-19T12:28:23.507Z,95.08
2022-08-19T12:29:23.973Z,94.43
2022-08-19T12:30:22.508Z,93.52
2022-08-19T12:31:22.577Z,93.18
2022-08-19T12:32:22.487Z,95.38
2022-08-19T12:33:22.448Z,94.08
2022-08-19T12:34:22.512Z,94.48
2022-08-19T12:35:22.428Z,93.68
2022-08-19T12:36:22.417Z,93.78
2022-08-19T12:37:22.424Z,93.78
2022-08-19T12:38:22.419Z,93.08
2022-08-19T12:39:22.382Z,92.58
2022-08-19T12:40:22.398Z,92.08
2022-08-19T12:41:22.369Z,93.18
2022-08-19T12:42:22.387Z,92.78
2022-08-19T12:43:22.362Z,92.63
2022-08-19T12:44:24.855Z,92.18
2022-08-19T12:45:23.316Z,93.04
2022-08-19T12:46:22.642Z,92.18
2022-08-19T12:47:22.315Z,91.67
2022-08-19T12:48:33.031Z,91.32
2022-08-19T12:49:52.189Z,91.98
2022-08-19T12:50:23.325Z,91.92
2022-08-19T12:51:22.249Z,92.62
2022-08-19T12:52:23.470Z,92.28